createdAt,value
2019-06-26T00:02:07.966Z,15.40
2019-06-26T00:04:36.710Z,21.23
2019-06-26T00:07:05.603Z,10.27
2019-06-26T00:09:34.547Z,15.70
2019-06-26T00:12:03.327Z,13.97
2019-06-26T00:14:32.119Z,10.53
2019-06-26T00:17:00.860Z,20.60
2019-06-26T00:19:29.611Z,20.67
2019-06-26T00:21:58.386Z,11.20
2019-06-26T00:24:27.162Z,10.30
2019-06-26T00:26:56.093Z,15.97
2019-06-26T00:29:24.858Z,12.13
2019-06-26T00:31:53.643Z,10.73
2019-06-26T00:34:22.315Z,16.33
2019-06-26T00:36:51.556Z,12.27
2019-06-26T00:39:20.388Z,18.30
2019-06-26T00:41:49.160Z,12.63
2019-06-26T00:44:17.990Z,12.10
2019-06-26T00:46:46.858Z,18.10
2019-06-26T00:49:15.631Z,11.43
2019-06-26T00:51:44.406Z,13.67
2019-06-26T00:54:13.117Z,18.73
2019-06-26T00:56:41.903Z,13.80
2019-06-26T00:59:10.806Z,12.67
2019-06-26T01:01:39.554Z,12.37
2019-06-26T01:04:09.977Z,11.70
2019-06-26T01:06:40.330Z,13.70
2019-06-26T01:09:09.139Z,16.10
2019-06-26T01:11:38.016Z,16.93
2019-06-26T01:14:06.899Z,14.33
2019-06-26T01:16:35.679Z,17.10
2019-06-26T01:19:04.681Z,13.73
2019-06-26T01:21:33.668Z,15.10
2019-06-26T01:24:02.452Z,16.07
2019-06-26T01:26:31.222Z,15.00
2019-06-26T01:29:00.029Z,20.13
2019-06-26T01:31:28.787Z,16.13
2019-06-26T01:33:57.683Z,16.73
2019-06-26T01:36:26.331Z,17.57
2019-06-26T01:38:55.122Z,19.20
2019-06-26T01:41:23.898Z,17.00
2019-06-26T01:43:52.713Z,17.17
2019-06-26T01:46:21.503Z,22.47
2019-06-26T01:48:50.188Z,20.07
2019-06-26T01:51:18.965Z,22.13
2019-06-26T01:53:47.704Z,26.90
2019-06-26T01:56:16.578Z,19.47
2019-06-26T01:58:45.403Z,20.00
2019-06-26T02:01:14.243Z,26.20
2019-06-26T02:03:43.006Z,19.63
2019-06-26T02:06:11.861Z,25.40
2019-06-26T02:08:40.675Z,25.47
2019-06-26T02:11:09.394Z,19.80
2019-06-26T02:13:38.158Z,20.90
2019-06-26T02:16:06.953Z,24.93
2019-06-26T02:18:37.250Z,22.57
2019-06-26T02:21:06.067Z,22.53
2019-06-26T02:23:34.879Z,21.83
2019-06-26T02:26:03.559Z,19.80
2019-06-26T02:28:32.204Z,22.27
2019-06-26T02:31:01.049Z,23.33
2019-06-26T02:33:29.796Z,22.53
2019-06-26T02:35:58.658Z,19.50
2019-06-26T02:38:27.512Z,23.80
2019-06-26T02:40:56.309Z,24.97
2019-06-26T02:43:25.135Z,19.40
2019-06-26T02:45:53.961Z,20.40
2019-06-26T02:48:22.721Z,28.73
2019-06-26T02:50:51.456Z,23.50
2019-06-26T02:53:20.241Z,22.20
2019-06-26T02:55:49.053Z,20.17
2019-06-26T02:58:17.871Z,21.90
2019-06-26T03:00:46.598Z,23.63
2019-06-26T03:03:15.560Z,21.87
2019-06-26T03:05:44.314Z,23.43
2019-06-26T03:08:13.095Z,24.90
2019-06-26T03:10:41.848Z,22.00
2019-06-26T03:13:10.580Z,23.60
2019-06-26T03:15:39.354Z,27.13
2019-06-26T03:18:08.116Z,23.57
2019-06-26T03:20:39.653Z,24.70
2019-06-26T03:23:08.377Z,23.87
2019-06-26T03:25:37.164Z,23.10
2019-06-26T03:28:05.959Z,25.77
2019-06-26T03:30:34.644Z,27.50
2019-06-26T03:33:03.333Z,27.80
2019-06-26T03:35:32.108Z,22.03
2019-06-26T03:38:00.905Z,31.73
2019-06-26T03:40:29.664Z,24.67
2019-06-26T03:42:58.346Z,23.37
2019-06-26T03:45:27.087Z,23.03
2019-06-26T03:47:55.794Z,25.57
2019-06-26T03:50:24.569Z,26.00
2019-06-26T03:52:53.359Z,25.90
2019-06-26T03:55:22.025Z,21.93
2019-06-26T03:57:50.689Z,26.17
2019-06-26T04:00:22.260Z,23.40
2019-06-26T04:02:51.089Z,20.97
2019-06-26T04:05:19.747Z,23.13
2019-06-26T04:07:48.563Z,29.37
2019-06-26T04:10:17.591Z,19.10
2019-06-26T04:12:46.238Z,19.83
2019-06-26T04:15:15.216Z,18.83
2019-06-26T04:17:44.004Z,20.90
2019-06-26T04:20:13.180Z,27.93
2019-06-26T04:22:41.949Z,22.93
2019-06-26T04:25:10.943Z,23.90
2019-06-26T04:27:39.612Z,19.20
2019-06-26T04:30:10.480Z,21.53
2019-06-26T04:32:39.378Z,19.90
2019-06-26T04:35:08.327Z,24.83
2019-06-26T04:37:37.066Z,42.17
2019-06-26T04:40:07.292Z,26.40
2019-06-26T04:42:36.028Z,28.80
2019-06-26T04:45:06.612Z,24.93
2019-06-26T04:47:35.646Z,24.50
2019-06-26T04:50:06.842Z,21.57
2019-06-26T04:52:35.612Z,26.53
2019-06-26T04:55:06.691Z,25.43
2019-06-26T04:57:35.666Z,27.23
2019-06-26T05:00:07.393Z,22.10
2019-06-26T05:02:36.138Z,26.93
2019-06-26T05:05:06.505Z,30.83
2019-06-26T05:07:35.270Z,26.53
2019-06-26T05:10:05.378Z,30.27
2019-06-26T05:12:34.232Z,23.73
2019-06-26T05:15:03.697Z,25.33
2019-06-26T05:17:32.565Z,37.43
2019-06-26T05:20:01.451Z,29.73
2019-06-26T05:22:30.305Z,21.33
2019-06-26T05:24:59.058Z,24.20
2019-06-26T05:27:27.778Z,24.83
2019-06-26T05:29:56.543Z,29.07
2019-06-26T05:32:25.240Z,25.97
2019-06-26T05:34:53.961Z,26.53
2019-06-26T05:37:22.762Z,27.57
2019-06-26T05:39:54.630Z,25.50
2019-06-26T05:42:22.006Z,26.03
2019-06-26T05:44:50.870Z,33.43
2019-06-26T05:47:22.041Z,26.73
2019-06-26T05:49:50.282Z,38.50
2019-06-26T05:52:19.090Z,30.53
2019-06-26T05:54:47.881Z,28.67
2019-06-26T05:57:16.661Z,26.63
2019-06-26T05:59:45.578Z,28.80
2019-06-26T06:02:14.361Z,29.20
2019-06-26T06:04:43.226Z,29.80
2019-06-26T06:07:12.013Z,35.60
2019-06-26T06:09:40.695Z,27.63
2019-06-26T06:12:09.488Z,30.50
2019-06-26T06:14:38.437Z,39.63
2019-06-26T06:17:07.223Z,32.67
2019-06-26T06:19:36.009Z,29.07
2019-06-26T06:22:05.142Z,33.83
2019-06-26T06:24:33.853Z,42.90
2019-06-26T06:27:02.711Z,29.23
2019-06-26T06:29:31.450Z,34.90
2019-06-26T06:32:00.278Z,28.43
2019-06-26T06:34:28.984Z,29.10
2019-06-26T06:36:57.836Z,31.73
2019-06-26T06:39:26.668Z,27.60
2019-06-26T06:41:55.436Z,26.60
2019-06-26T06:44:24.220Z,28.47
2019-06-26T06:47:03.270Z,28.30
2019-06-26T06:49:23.505Z,27.00
2019-06-26T06:51:52.296Z,29.13
2019-06-26T06:54:21.092Z,29.30
2019-06-26T06:56:49.951Z,30.30
2019-06-26T06:59:19.559Z,33.17
2019-06-26T07:01:48.405Z,25.70
2019-06-26T07:04:17.188Z,29.70
2019-06-26T07:06:46.083Z,27.80
2019-06-26T07:09:14.903Z,27.70
2019-06-26T07:11:43.831Z,25.73
2019-06-26T07:14:12.789Z,26.52
2019-06-26T07:16:41.486Z,29.98
2019-06-26T07:19:10.439Z,31.20
2019-06-26T07:21:39.252Z,28.65
2019-06-26T07:24:08.026Z,25.40
2019-06-26T07:26:36.906Z,31.87
2019-06-26T07:29:05.761Z,27.93
2019-06-26T07:31:38.294Z,29.42
2019-06-26T07:34:05.377Z,29.52
2019-06-26T07:36:34.120Z,27.35
2019-06-26T07:39:03.176Z,25.92
2019-06-26T07:41:31.944Z,29.00
2019-06-26T07:44:00.812Z,31.57
2019-06-26T07:46:29.603Z,25.70
2019-06-26T07:48:58.332Z,25.90
2019-06-26T07:51:27.135Z,28.77
2019-06-26T07:53:55.862Z,25.77
2019-06-26T07:56:24.780Z,23.75
2019-06-26T07:58:53.770Z,24.95
2019-06-26T08:01:22.564Z,29.00
2019-06-26T08:03:51.389Z,23.67
2019-06-26T08:06:39.426Z,26.12
2019-06-26T08:09:08.390Z,22.35
2019-06-26T08:11:37.102Z,25.17
2019-06-26T08:14:05.998Z,21.80
2019-06-26T08:16:34.841Z,21.25
2019-06-26T08:19:03.663Z,18.07
2019-06-26T08:21:32.510Z,22.48
2019-06-26T08:24:01.353Z,20.60
2019-06-26T08:26:30.154Z,26.42
2019-06-26T08:28:58.969Z,14.58
2019-06-26T08:31:27.781Z,12.13
2019-06-26T08:33:56.532Z,14.05
2019-06-26T08:36:25.339Z,14.83
2019-06-26T08:38:54.114Z,10.58
2019-06-26T08:41:22.928Z,9.73
2019-06-26T08:43:51.652Z,10.30
2019-06-26T08:46:20.462Z,10.78
2019-06-26T08:48:51.854Z,10.18
2019-06-26T08:51:20.325Z,7.42
2019-06-26T08:53:49.073Z,9.15
2019-06-26T08:56:17.797Z,12.90
2019-06-26T08:58:46.546Z,6.80
2019-06-26T09:01:15.289Z,7.50
2019-06-26T09:03:44.100Z,7.03
2019-06-26T09:06:13.159Z,7.12
2019-06-26T09:08:41.955Z,7.08
2019-06-26T09:11:10.627Z,7.35
2019-06-26T09:13:39.606Z,8.43
2019-06-26T09:16:08.349Z,7.15
2019-06-26T09:18:37.017Z,7.25
2019-06-26T09:21:05.992Z,6.30
2019-06-26T09:23:34.792Z,7.22
2019-06-26T09:26:03.532Z,6.83
2019-06-26T09:28:32.219Z,4.60
2019-06-26T09:31:00.954Z,4.12
2019-06-26T09:33:32.216Z,5.10
2019-06-26T09:36:00.382Z,6.03
2019-06-26T09:38:29.119Z,6.15
2019-06-26T09:41:17.087Z,5.50
2019-06-26T09:43:45.692Z,5.55
2019-06-26T09:46:15.343Z,4.72
2019-06-26T09:48:52.514Z,5.33
2019-06-26T09:51:14.636Z,10.45
2019-06-26T09:53:47.490Z,5.60
2019-06-26T09:56:13.929Z,7.25
2019-06-26T09:58:42.679Z,6.30
2019-06-26T10:01:11.376Z,5.85
2019-06-26T10:03:40.254Z,10.15
2019-06-26T10:06:09.001Z,6.67
2019-06-26T10:08:37.754Z,5.42
2019-06-26T10:11:06.875Z,6.25
2019-06-26T10:13:35.708Z,7.62
2019-06-26T10:16:04.534Z,7.65
2019-06-26T10:18:33.317Z,8.98
2019-06-26T10:21:02.188Z,8.80
2019-06-26T10:23:31.024Z,10.65
2019-06-26T10:25:59.823Z,7.83
2019-06-26T10:28:28.611Z,13.78
2019-06-26T10:30:57.384Z,8.08
2019-06-26T10:33:26.119Z,7.22
2019-06-26T10:35:54.899Z,9.28
2019-06-26T10:38:23.702Z,8.85
2019-06-26T10:40:52.562Z,10.98
2019-06-26T10:43:21.410Z,9.80
2019-06-26T10:45:50.118Z,7.83
2019-06-26T10:48:18.765Z,4.80
2019-06-26T10:50:51.037Z,5.33
2019-06-26T10:53:18.223Z,6.20
2019-06-26T10:55:46.911Z,5.97
2019-06-26T10:58:15.714Z,7.10
2019-06-26T11:00:44.706Z,4.87
2019-06-26T11:03:13.389Z,5.67
2019-06-26T11:05:42.592Z,5.78
2019-06-26T11:08:11.333Z,6.35
2019-06-26T11:10:40.116Z,6.20
2019-06-26T11:13:08.801Z,7.40
2019-06-26T11:15:37.641Z,8.48
2019-06-26T11:18:06.432Z,7.33
2019-06-26T11:20:35.535Z,8.90
2019-06-26T11:23:04.536Z,7.05
2019-06-26T11:25:33.307Z,9.10
2019-06-26T11:28:02.282Z,10.10
2019-06-26T11:30:31.296Z,13.30
2019-06-26T11:33:00.069Z,14.25
2019-06-26T11:35:28.878Z,20.08
2019-06-26T11:37:57.643Z,24.37
2019-06-26T11:40:26.385Z,15.93
2019-06-26T11:42:55.181Z,17.48
2019-06-26T11:45:24.181Z,16.87
2019-06-26T11:47:52.949Z,19.23
2019-06-26T11:50:22.395Z,15.15
2019-06-26T11:52:51.229Z,15.13
2019-06-26T11:55:20.450Z,11.28
2019-06-26T11:57:49.352Z,15.53
2019-06-26T12:00:21.073Z,16.10
2019-06-26T12:02:49.793Z,28.32
2019-06-26T12:05:19.113Z,17.52
2019-06-26T12:07:47.923Z,18.42
2019-06-26T12:10:17.325Z,13.58
2019-06-26T12:12:46.078Z,13.62
2019-06-26T12:15:15.666Z,17.07
2019-06-26T12:17:44.438Z,14.38
2019-06-26T12:20:19.327Z,10.85
2019-06-26T12:22:45.865Z,12.35
2019-06-26T12:25:15.228Z,13.38
2019-06-26T12:27:43.908Z,18.52
2019-06-26T12:30:13.907Z,17.60
2019-06-26T12:33:01.181Z,21.90
2019-06-26T12:35:13.735Z,20.80
2019-06-26T12:37:42.482Z,23.62
2019-06-26T12:40:13.071Z,23.60
2019-06-26T12:42:46.916Z,23.07
2019-06-26T12:45:16.182Z,19.23
2019-06-26T12:47:45.081Z,21.12
2019-06-26T12:50:14.688Z,15.83
2019-06-26T12:52:43.694Z,16.17
2019-06-26T12:55:12.898Z,15.60
2019-06-26T12:57:41.928Z,11.78
2019-06-26T13:00:12.001Z,12.13
2019-06-26T13:02:40.934Z,11.60
2019-06-26T13:05:10.450Z,11.35
2019-06-26T13:07:39.421Z,11.60
2019-06-26T13:10:10.815Z,13.30
2019-06-26T13:12:39.663Z,10.88
2019-06-26T13:15:09.724Z,16.87
2019-06-26T13:17:38.764Z,12.82
2019-06-26T13:20:10.019Z,18.77
2019-06-26T13:22:39.144Z,15.38
2019-06-26T13:25:08.896Z,16.82
2019-06-26T13:27:37.748Z,16.17
2019-06-26T13:30:08.158Z,15.20
2019-06-26T13:32:36.974Z,15.45
2019-06-26T13:35:07.538Z,17.60
2019-06-26T13:37:36.722Z,16.48
2019-06-26T13:40:08.074Z,16.32
2019-06-26T13:42:36.772Z,15.10
2019-06-26T13:45:07.810Z,14.53
2019-06-26T13:47:36.625Z,13.60
2019-06-26T13:50:07.001Z,11.55
2019-06-26T13:52:35.965Z,10.55
2019-06-26T13:55:05.765Z,13.45
2019-06-26T13:57:34.500Z,10.85
2019-06-26T14:00:04.880Z,11.05
2019-06-26T14:02:33.585Z,13.95
2019-06-26T14:05:02.382Z,17.85
2019-06-26T14:07:31.216Z,12.85
2019-06-26T14:10:00.052Z,13.48
2019-06-26T14:12:28.804Z,14.23
2019-06-26T14:14:58.323Z,12.05
2019-06-26T14:17:27.325Z,13.20
2019-06-26T14:19:56.257Z,14.07
2019-06-26T14:22:25.119Z,15.43
2019-06-26T14:24:54.341Z,12.15
2019-06-26T14:27:23.279Z,13.15
2019-06-26T14:29:52.124Z,12.20
2019-06-26T14:32:20.983Z,11.05
2019-06-26T14:34:49.778Z,11.48
2019-06-26T14:37:18.535Z,12.93
2019-06-26T14:39:47.339Z,13.15
2019-06-26T14:42:15.925Z,10.95
2019-06-26T14:44:44.697Z,12.00
2019-06-26T14:47:13.514Z,21.33
2019-06-26T14:49:42.335Z,13.27
2019-06-26T14:52:11.129Z,12.23
2019-06-26T14:54:39.935Z,15.17
2019-06-26T14:57:08.750Z,12.40
2019-06-26T14:59:37.459Z,15.67
2019-06-26T15:02:06.532Z,13.83
2019-06-26T15:04:35.447Z,12.93
2019-06-26T15:07:04.239Z,13.87
2019-06-26T15:09:32.972Z,11.47
2019-06-26T15:12:01.731Z,11.27
2019-06-26T15:14:30.441Z,10.80
2019-06-26T15:16:59.172Z,12.73
2019-06-26T15:19:27.769Z,19.23
2019-06-26T15:21:58.705Z,8.63
2019-06-26T15:24:26.893Z,9.43
2019-06-26T15:26:55.592Z,9.10
2019-06-26T15:29:24.399Z,7.70
2019-06-26T15:31:53.193Z,7.43
2019-06-26T15:34:22.024Z,8.50
2019-06-26T15:36:50.803Z,7.80
2019-06-26T15:39:19.573Z,8.53
2019-06-26T15:41:48.400Z,12.77
2019-06-26T15:44:17.052Z,7.83
2019-06-26T15:46:45.863Z,7.77
2019-06-26T15:49:14.527Z,7.73
2019-06-26T15:51:43.350Z,7.13
2019-06-26T15:54:12.163Z,9.90
2019-06-26T15:56:40.967Z,10.83
2019-06-26T15:59:09.907Z,10.00
2019-06-26T16:01:38.733Z,10.97
2019-06-26T16:04:07.461Z,8.23
2019-06-26T16:06:47.838Z,10.10
2019-06-26T16:09:16.676Z,9.77
2019-06-26T16:11:45.430Z,13.73
2019-06-26T16:14:14.233Z,12.10
2019-06-26T16:16:44.550Z,10.03
2019-06-26T16:19:14.925Z,11.23
2019-06-26T16:21:43.664Z,21.00
2019-06-26T16:24:12.440Z,13.70
2019-06-26T16:26:41.256Z,15.67
2019-06-26T16:29:09.920Z,14.10
2019-06-26T16:31:38.711Z,17.13
2019-06-26T16:34:07.540Z,12.33
2019-06-26T16:36:36.373Z,11.00
2019-06-26T16:39:07.584Z,14.40
2019-06-26T16:41:36.953Z,10.47
2019-06-26T16:44:06.894Z,13.77
2019-06-26T16:46:35.634Z,9.70
2019-06-26T16:49:04.836Z,13.40
2019-06-26T16:51:33.571Z,13.43
2019-06-26T16:54:02.390Z,14.60
2019-06-26T16:56:31.213Z,17.13
2019-06-26T16:59:00.013Z,17.53
2019-06-26T17:01:28.748Z,14.47
2019-06-26T17:03:57.527Z,12.70
2019-06-26T17:06:26.689Z,10.03
2019-06-26T17:08:55.774Z,13.27
2019-06-26T17:11:24.586Z,15.83
2019-06-26T17:13:53.364Z,12.20
2019-06-26T17:16:22.143Z,16.00
2019-06-26T17:18:50.876Z,9.00
2019-06-26T17:21:19.690Z,8.77
2019-06-26T17:23:48.473Z,9.70
2019-06-26T17:26:17.609Z,7.87
2019-06-26T17:28:46.435Z,14.27
2019-06-26T17:31:15.295Z,10.67
2019-06-26T17:33:44.233Z,18.60
2019-06-26T17:36:13.021Z,25.13
2019-06-26T17:38:41.887Z,9.70
2019-06-26T17:41:10.672Z,11.30
2019-06-26T17:43:39.506Z,17.70
2019-06-26T17:46:08.265Z,10.20
2019-06-26T17:48:36.995Z,14.63
2019-06-26T17:51:05.972Z,10.53
2019-06-26T17:53:34.956Z,14.57
2019-06-26T17:56:03.823Z,8.70
2019-06-26T17:58:32.564Z,8.07
2019-06-26T18:01:01.440Z,8.23
2019-06-26T18:03:30.358Z,8.70
2019-06-26T18:05:59.199Z,12.13
2019-06-26T18:08:28.075Z,8.33
2019-06-26T18:10:56.870Z,11.87
2019-06-26T18:13:25.743Z,15.83
2019-06-26T18:15:54.503Z,11.43
2019-06-26T18:18:23.301Z,14.80
2019-06-26T18:20:52.103Z,9.67
2019-06-26T18:23:33.618Z,11.00
2019-06-26T18:25:54.210Z,12.83
2019-06-26T18:28:21.990Z,18.67
2019-06-26T18:30:50.854Z,9.47
2019-06-26T18:33:19.671Z,9.67
2019-06-26T18:35:48.324Z,13.97
2019-06-26T18:38:17.154Z,22.23
2019-06-26T18:40:46.001Z,15.23
2019-06-26T18:43:15.193Z,18.10
2019-06-26T18:45:44.201Z,10.40
2019-06-26T18:48:13.079Z,17.50
2019-06-26T18:50:41.965Z,8.50
2019-06-26T18:53:10.772Z,11.10
2019-06-26T18:55:39.609Z,21.93
2019-06-26T18:58:08.479Z,8.70
2019-06-26T19:00:37.361Z,5.37
2019-06-26T19:03:06.242Z,12.80
2019-06-26T19:05:35.074Z,5.00
2019-06-26T19:08:03.915Z,8.30
2019-06-26T19:10:32.754Z,7.80
2019-06-26T19:13:01.566Z,4.83
2019-06-26T19:15:30.337Z,6.93
2019-06-26T19:17:59.239Z,4.80
2019-06-26T19:20:28.160Z,6.00
2019-06-26T19:22:57.021Z,5.90
2019-06-26T19:25:25.923Z,8.23
2019-06-26T19:27:54.814Z,10.00
2019-06-26T19:30:23.783Z,4.33
2019-06-26T19:32:52.797Z,12.63
2019-06-26T19:35:21.798Z,11.47
2019-06-26T19:37:50.772Z,16.60
2019-06-26T19:40:19.617Z,4.33
2019-06-26T19:42:48.443Z,9.43
2019-06-26T19:45:17.871Z,3.10
2019-06-26T19:47:46.940Z,3.80
2019-06-26T19:50:16.670Z,3.80
2019-06-26T19:52:45.570Z,4.83
2019-06-26T19:55:14.583Z,3.10
2019-06-26T19:57:43.453Z,6.17
2019-06-26T20:00:12.719Z,4.20
2019-06-26T20:02:41.643Z,3.77
2019-06-26T20:05:10.778Z,2.50
2019-06-26T20:07:39.577Z,4.43
2019-06-26T20:10:09.948Z,5.60
2019-06-26T20:12:38.825Z,6.40
2019-06-26T20:15:08.137Z,11.83
2019-06-26T20:17:37.001Z,3.17
2019-06-26T20:20:08.485Z,4.67
2019-06-26T20:22:37.489Z,5.60
2019-06-26T20:25:07.553Z,5.93
2019-06-26T20:27:36.449Z,6.03
2019-06-26T20:30:09.566Z,12.27
2019-06-26T20:32:37.288Z,3.53
2019-06-26T20:35:07.039Z,5.27
2019-06-26T20:37:36.183Z,8.30
2019-06-26T20:40:07.219Z,6.70
2019-06-26T20:42:36.140Z,4.80
2019-06-26T20:45:06.617Z,7.47
2019-06-26T20:47:35.515Z,4.00
2019-06-26T20:50:06.001Z,12.83
2019-06-26T20:52:34.840Z,10.60
2019-06-26T20:55:04.432Z,6.70
2019-06-26T20:57:33.376Z,8.00
2019-06-26T21:00:02.277Z,7.47
2019-06-26T21:02:31.126Z,15.87
2019-06-26T21:04:59.820Z,24.33
2019-06-26T21:07:28.719Z,13.40
2019-06-26T21:09:57.470Z,16.07
2019-06-26T21:12:26.207Z,11.10
2019-06-26T21:14:54.958Z,5.53
2019-06-26T21:17:25.803Z,14.27
2019-06-26T21:19:54.136Z,13.10
2019-06-26T21:22:22.957Z,10.40
2019-06-26T21:24:51.831Z,11.00
2019-06-26T21:27:20.658Z,8.63
2019-06-26T21:29:49.445Z,6.33
2019-06-26T21:32:18.224Z,8.80
2019-06-26T21:34:46.848Z,5.30
2019-06-26T21:37:15.643Z,17.00
2019-06-26T21:39:44.434Z,7.60
2019-06-26T21:42:13.279Z,10.83
2019-06-26T21:44:42.158Z,4.53
2019-06-26T21:47:10.997Z,16.43
2019-06-26T21:49:39.781Z,6.73
2019-06-26T21:52:08.523Z,8.80
2019-06-26T21:54:37.655Z,19.73
2019-06-26T21:57:09.250Z,6.70
2019-06-26T21:59:36.842Z,10.30
2019-06-26T22:02:05.847Z,5.50
2019-06-26T22:04:34.690Z,6.93
2019-06-26T22:07:03.530Z,5.80
2019-06-26T22:09:32.327Z,14.87
2019-06-26T22:12:01.091Z,9.73
2019-06-26T22:14:29.942Z,6.63
2019-06-26T22:16:58.698Z,10.13
2019-06-26T22:19:27.523Z,9.23
2019-06-26T22:21:56.347Z,14.77
2019-06-26T22:24:25.099Z,14.33
2019-06-26T22:26:53.951Z,13.13
2019-06-26T22:29:22.711Z,13.17
2019-06-26T22:31:51.587Z,8.80
2019-06-26T22:34:20.452Z,4.50
2019-06-26T22:36:52.189Z,10.83
2019-06-26T22:39:19.760Z,14.13
2019-06-26T22:41:48.526Z,12.77
2019-06-26T22:44:17.318Z,11.87
2019-06-26T22:46:46.074Z,8.27
2019-06-26T22:49:14.918Z,18.90
2019-06-26T22:51:43.588Z,11.27
2019-06-26T22:54:12.389Z,9.00
2019-06-26T22:56:41.161Z,9.13
2019-06-26T22:59:09.907Z,11.97
2019-06-26T23:01:38.805Z,13.67
2019-06-26T23:04:07.596Z,6.93
2019-06-26T23:06:37.547Z,30.37
2019-06-26T23:09:07.487Z,8.73
2019-06-26T23:11:36.347Z,13.40
2019-06-26T23:14:05.135Z,6.60
2019-06-26T23:16:33.899Z,5.83
2019-06-26T23:19:02.716Z,11.17
2019-06-26T23:21:31.480Z,14.13
2019-06-26T23:24:00.188Z,9.20
2019-06-26T23:26:28.919Z,8.07
2019-06-26T23:28:57.651Z,9.63
2019-06-26T23:31:26.478Z,16.80
2019-06-26T23:33:55.179Z,10.60
2019-06-26T23:36:23.903Z,8.33
2019-06-26T23:38:52.778Z,23.63
2019-06-26T23:41:21.534Z,18.33
2019-06-26T23:43:50.257Z,20.97
2019-06-26T23:46:19.010Z,18.37
2019-06-26T23:48:47.717Z,13.00
2019-06-26T23:51:16.531Z,15.23
2019-06-26T23:53:45.318Z,19.20
2019-06-26T23:56:14.044Z,23.33
2019-06-26T23:58:42.850Z,19.47
